createdAt,value
2019-05-03T00:01:27.922Z,43.5
2019-05-03T00:11:26.418Z,43.1
2019-05-03T00:21:28.444Z,41.4
2019-05-03T00:31:28.654Z,44.6
2019-05-03T00:41:27.839Z,40.7
2019-05-03T00:51:26.727Z,43.5
2019-05-03T01:01:25.878Z,35.0
2019-05-03T01:11:27.037Z,41.8
2019-05-03T01:21:27.104Z,37.5
2019-05-03T01:31:27.823Z,38.9
2019-05-03T01:41:26.240Z,32.2
2019-05-03T01:51:26.810Z,34.8
2019-05-03T02:01:26.279Z,32.3
2019-05-03T02:11:26.290Z,33.7
2019-05-03T02:21:27.422Z,34.5
2019-05-03T02:31:26.985Z,35.1
2019-05-03T02:41:26.563Z,31.9
2019-05-03T02:51:26.845Z,41.1
2019-05-03T03:01:27.441Z,39.8
2019-05-03T03:11:27.266Z,39.6
2019-05-03T03:21:27.353Z,43.3
2019-05-03T03:31:29.393Z,43.9
2019-05-03T03:41:27.571Z,31.3
2019-05-03T03:51:27.424Z,45.1
2019-05-03T04:01:27.613Z,36.9
2019-05-03T04:11:27.162Z,34.0
2019-05-03T04:21:28.275Z,37.3
2019-05-03T04:31:28.325Z,33.1
2019-05-03T04:41:28.334Z,36.0
2019-05-03T04:51:27.040Z,34.2
2019-05-03T05:01:27.188Z,32.4
2019-05-03T05:11:27.151Z,29.0
2019-05-03T05:21:27.505Z,30.4
2019-05-03T05:31:26.186Z,34.8
2019-05-03T05:41:26.652Z,33.9
2019-05-03T05:51:27.824Z,34.8
2019-05-03T06:01:27.546Z,32.4
2019-05-03T06:11:27.192Z,30.2
2019-05-03T06:21:27.943Z,27.9
2019-05-03T06:31:26.900Z,30.0
2019-05-03T06:41:27.191Z,26.9
2019-05-03T06:51:28.449Z,33.3
2019-05-03T07:01:27.378Z,32.4
2019-05-03T07:11:27.156Z,33.3
2019-05-03T07:21:28.018Z,32.9
2019-05-03T07:31:26.942Z,32.8
2019-05-03T07:41:28.021Z,36.8
2019-05-03T07:51:27.066Z,39.2
2019-05-03T08:01:27.549Z,42.9
2019-05-03T08:11:27.300Z,35.2
2019-05-03T08:21:27.132Z,36.5
2019-05-03T08:31:28.086Z,34.6
2019-05-03T08:41:27.410Z,38.1
2019-05-03T08:51:26.989Z,34.4
2019-05-03T09:01:26.651Z,30.9
2019-05-03T09:11:36.751Z,35.7
2019-05-03T09:21:28.333Z,33.1
2019-05-03T09:31:27.735Z,31.0
2019-05-03T09:41:27.155Z,31.9
2019-05-03T09:51:27.216Z,30.1
2019-05-03T10:01:26.899Z,24.8
2019-05-03T10:11:26.121Z,26.9
2019-05-03T10:21:27.404Z,25.9
2019-05-03T10:31:28.442Z,25.7
2019-05-03T10:41:27.299Z,24.7
2019-05-03T10:51:27.483Z,21.7
2019-05-03T11:01:26.449Z,22.5
2019-05-03T11:11:27.332Z,27.2
2019-05-03T11:21:31.594Z,24.8
2019-05-03T11:31:25.630Z,25.0
2019-05-03T11:41:35.450Z,18.1
2019-05-03T11:51:26.499Z,16.1
2019-05-03T12:01:27.995Z,18.0
2019-05-03T12:11:32.124Z,20.7
2019-05-03T12:21:29.241Z,15.7
2019-05-03T12:31:40.475Z,19.0
2019-05-03T12:41:27.767Z,17.7
2019-05-03T12:51:48.863Z,92.1
2019-05-03T13:01:41.949Z,159.2
2019-05-03T13:11:27.431Z,98.2
2019-05-03T13:21:28.098Z,7.9
2019-05-03T13:31:27.138Z,7.4
2019-05-03T13:41:28.228Z,7.1
2019-05-03T13:51:30.228Z,7.0
2019-05-03T14:01:26.968Z,7.4
2019-05-03T14:11:27.268Z,6.3
2019-05-03T14:21:27.043Z,6.0
2019-05-03T14:31:26.719Z,4.1
2019-05-03T14:41:27.262Z,6.1
2019-05-03T14:51:27.684Z,6.3
2019-05-03T15:01:27.309Z,7.9
2019-05-03T15:11:27.393Z,4.3
2019-05-03T15:21:27.171Z,6.9
2019-05-03T15:31:27.839Z,4.6
2019-05-03T15:41:27.335Z,7.1
2019-05-03T15:51:26.847Z,6.9
2019-05-03T16:01:26.721Z,11.0
2019-05-03T16:11:26.915Z,12.8
2019-05-03T16:21:27.763Z,9.5
2019-05-03T16:31:27.194Z,5.8
2019-05-03T16:41:26.864Z,8.7
2019-05-03T16:51:29.375Z,6.6
2019-05-03T17:01:27.422Z,6.7
2019-05-03T17:11:26.980Z,9.1
2019-05-03T17:21:26.769Z,9.4
2019-05-03T17:31:27.100Z,12.7
2019-05-03T17:41:26.917Z,12.4
2019-05-03T17:51:26.601Z,11.2
2019-05-03T18:01:28.573Z,13.4
2019-05-03T18:11:27.257Z,11.3
2019-05-03T18:21:27.444Z,15.0
2019-05-03T18:31:28.180Z,19.5
2019-05-03T18:41:27.621Z,18.0
2019-05-03T18:51:26.437Z,15.0
2019-05-03T19:01:27.426Z,18.2
2019-05-03T19:11:27.921Z,18.3
2019-05-03T19:21:26.913Z,17.1
2019-05-03T19:31:26.800Z,17.5
2019-05-03T19:41:26.993Z,20.7
2019-05-03T19:51:27.149Z,21.9
2019-05-03T20:01:26.585Z,19.0
2019-05-03T20:11:27.166Z,21.1
2019-05-03T20:21:28.591Z,22.8
2019-05-03T20:31:28.328Z,20.4
2019-05-03T20:41:28.356Z,18.4
2019-05-03T20:51:27.754Z,17.9
2019-05-03T21:01:26.611Z,22.0
2019-05-03T21:11:27.426Z,23.1
2019-05-03T21:21:28.932Z,20.7
2019-05-03T21:31:27.214Z,21.4
2019-05-03T21:41:27.333Z,21.5
2019-05-03T21:51:27.167Z,24.8
2019-05-03T22:01:26.907Z,19.7
2019-05-03T22:11:28.965Z,21.9
2019-05-03T22:21:28.074Z,22.7
2019-05-03T22:31:27.383Z,21.8
2019-05-03T22:41:27.019Z,28.6
2019-05-03T22:51:26.480Z,21.2
2019-05-03T23:01:27.329Z,18.1
2019-05-03T23:11:26.959Z,23.1
2019-05-03T23:21:28.392Z,19.7
2019-05-03T23:31:29.994Z,19.9
2019-05-03T23:41:26.682Z,21.8
2019-05-03T23:51:27.271Z,25.7
